Time;durP1;ratioP1;P1;durP2;ratioP2;P2;SDS_P1;SDS_P2;PMS_P1;PMS_P2;Temp;Humidity;BMP_temperature;BMP_pressure;BME280_temperature;BME280_humidity;BME280_pressure;Samples;Min_cycle;Max_cycle;Signal;HPM_P1;HPM_P2
2023/03/25 13:26:36;;;;;;;3.53;1.02;;;;;;;18.74;51.55;100256.09;5094617;27;20370;-76
2023/03/25 13:29:20;;;;;;;2.88;1.08;;;;;;;19.13;50.17;100254.94;5035140;28;20021;-76
2023/03/25 13:41:43;;;;;;;3.80;1.45;;;;;;;19.85;48.03;100236.63;5042020;27;96910;-77
2023/03/25 13:44:18;;;;;;;2.53;0.90;;;;;;;19.95;48.05;100232.75;4990950;28;96997;-77
2023/03/25 15:16:58;;;;;;;2.78;1.02;;;;;;;22.18;43.02;100270.69;5019083;27;97109;-80
2023/03/25 15:19:24;;;;;;;3.72;1.20;;;;;;;21.76;43.95;100270.78;4977994;28;97627;-77
2023/03/25 15:31:36;;;;;;;3.10;0.90;;;;;;;21.65;43.62;100280.06;5042679;27;97454;-75
2023/03/25 15:34:08;;;;;;;2.97;0.88;;;;;;;20.91;45.75;100282.19;5025811;27;97356;-76
2023/03/25 15:36:44;;;;;;;3.45;0.95;;;;;;;20.65;46.55;100296.44;4994707;28;101177;-75
2023/03/25 15:39:09;;;;;;;3.58;1.20;;;;;;;20.57;46.66;100293.16;5008254;28;98469;-76
2023/03/25 16:10:45;;;;;;;2.40;0.82;;;;;;;21.09;45.33;100312.41;5027034;27;97070;-81
2023/03/25 16:13:12;;;;;;;1.73;0.70;;;;;;;20.94;45.83;100320.97;5011830;27;96760;-79
2023/03/25 16:15:37;;;;;;;3.03;0.88;;;;;;;21.01;45.76;100320.66;4993437;28;99380;-79
2023/03/25 16:18:05;;;;;;;7.82;1.02;;;;;;;20.99;45.88;100319.00;4995773;28;108077;-78
2023/03/25 16:20:32;;;;;;;3.80;0.98;;;;;;;21.16;45.76;100319.19;5002787;28;96943;-79
2023/03/25 16:22:58;;;;;;;2.00;0.82;;;;;;;21.45;45.05;100327.78;4994468;28;97049;-79
2023/03/25 16:25:36;;;;;;;5.38;1.30;;;;;;;21.32;45.33;100324.75;4994112;28;97057;-79
2023/03/25 16:28:04;;;;;;;4.72;1.13;;;;;;;21.18;45.58;100340.34;4979874;28;97249;-83
2023/03/25 16:30:38;;;;;;;4.45;1.02;;;;;;;20.96;45.87;100330.56;4988457;28;97274;-82
2023/03/25 16:33:06;;;;;;;2.42;1.02;;;;;;;20.79;46.48;100336.53;5008752;28;97118;-82
2023/03/25 16:35:35;;;;;;;4.63;1.00;;;;;;;20.85;46.70;100325.69;5025973;27;96810;-82
2023/03/25 16:38:01;;;;;;;3.88;1.20;;;;;;;20.99;45.99;100349.00;5009390;28;97049;-82
2023/03/25 16:40:38;;;;;;;3.22;1.10;;;;;;;20.94;45.87;100339.50;5011088;28;96858;-83
2023/03/25 16:43:14;;;;;;;4.80;0.93;;;;;;;20.86;46.29;100353.94;4993509;28;96905;-82
2023/03/25 16:45:40;;;;;;;4.47;0.95;;;;;;;20.85;46.10;100352.19;4972975;28;98283;-82
2023/03/25 16:48:07;;;;;;;3.47;1.02;;;;;;;20.83;46.22;100353.19;5007079;28;97255;-82
2023/03/25 16:50:33;;;;;;;4.43;0.90;;;;;;;20.73;46.33;100357.97;4996214;28;96888;-83
2023/03/25 16:53:01;;;;;;;2.53;1.08;;;;;;;20.68;46.57;100371.38;4998371;28;98607;-83
2023/03/25 16:55:47;;;;;;;2.67;1.10;;;;;;;20.62;46.89;100352.19;4999128;28;98673;-82
2023/03/25 16:58:21;;;;;;;5.00;1.00;;;;;;;20.65;46.62;100365.34;4997031;28;98230;-82
2023/03/25 17:00:51;;;;;;;4.13;1.10;;;;;;;20.58;46.80;100362.00;5003136;28;96824;-82
2023/03/25 17:03:37;;;;;;;2.65;0.90;;;;;;;20.55;46.58;100372.69;5016232;27;96884;-82
2023/03/25 17:06:24;;;;;;;4.18;1.25;;;;;;;20.49;46.78;100378.25;5012107;28;99567;-81
2023/03/25 17:08:55;;;;;;;3.45;1.10;;;;;;;20.46;47.00;100375.69;4994763;28;99752;-82
2023/03/25 17:11:21;;;;;;;3.85;1.00;;;;;;;20.41;47.20;100382.94;4997209;28;96837;-82
2023/03/25 17:13:50;;;;;;;4.68;1.42;;;;;;;20.38;46.98;100372.47;5015428;28;97309;-82
2023/03/25 17:16:17;;;;;;;2.65;0.93;;;;;;;20.38;46.89;100378.63;5008229;28;96797;-82
2023/03/25 17:18:42;;;;;;;2.20;0.73;;;;;;;20.38;46.99;100381.28;5005212;28;97488;-83
2023/03/25 17:21:12;;;;;;;3.05;1.02;;;;;;;20.38;47.17;100381.28;4982411;28;96956;-82
2023/03/25 17:23:42;;;;;;;2.67;1.20;;;;;;;20.37;46.86;100394.56;4996827;28;98975;-83
2023/03/25 17:26:12;;;;;;;3.75;0.93;;;;;;;20.34;46.91;100395.56;5011659;28;97757;-82
2023/03/25 17:29:05;;;;;;;4.95;1.23;;;;;;;20.33;47.17;100397.31;4966721;28;97620;-84
2023/03/25 17:31:35;;;;;;;1.80;0.75;;;;;;;20.33;47.17;100399.97;4982360;28;96966;-82
2023/03/25 17:34:05;;;;;;;2.58;1.13;;;;;;;20.33;47.04;100396.47;4995048;28;96987;-83
2023/03/25 17:36:31;;;;;;;3.83;1.08;;;;;;;20.33;47.06;100407.06;4983338;28;99931;-83
2023/03/25 17:38:57;;;;;;;5.50;1.02;;;;;;;20.32;47.06;100414.16;4974340;28;98001;-83
2023/03/25 17:41:29;;;;;;;2.33;1.00;;;;;;;20.30;47.02;100421.28;4989415;28;96834;-83
2023/03/25 17:43:55;;;;;;;3.28;1.02;;;;;;;20.29;47.26;100414.25;4962880;28;97391;-83
2023/03/25 17:46:27;;;;;;;3.90;1.17;;;;;;;20.29;47.18;100418.69;4978495;28;99238;-83
2023/03/25 17:48:55;;;;;;;2.88;0.85;;;;;;;20.26;47.38;100409.03;4967816;28;97208;-82
2023/03/25 17:51:21;;;;;;;3.35;0.85;;;;;;;20.25;47.12;100420.56;4966527;28;97211;-83
2023/03/25 17:53:47;;;;;;;3.00;1.27;;;;;;;20.36;47.20;100420.19;4982960;28;96859;-86
2023/03/25 17:56:13;;;;;;;4.30;1.23;;;;;;;20.49;46.97;100426.78;4994095;28;98763;-88
